This is the latest recevied weather packets stored in our database for station/object W5MAI. If no packets are shown the sender has not sent any weather packets the latest 10 day(s).
| Time | Temp. | Humidity | Pressure | Rain* | Wind** | Luminosity | Snow |
|---|---|---|---|---|---|---|---|
| 1777658021 | 15.56° C | 96% | 1014 hPa | 5.33 mm | - | 98 W/m² | - |
| 1777657451 | 15.56° C | 96% | 1014 hPa | 5.33 mm | - | 178 W/m² | - |
| 1777656805 | 15.56° C | 96% | 1014.8 hPa | 5.08 mm | - | 93 W/m² | - |
| 1777656238 | 15.56° C | 96% | 1015.1 hPa | 4.32 mm | - | 39 W/m² | - |
| 1777655658 | 15.56° C | 96% | 1014.8 hPa | 3.56 mm | - | 14 W/m² | - |
| 1777653828 | 15.56° C | 96% | 1012.4 hPa | 0 mm | - | 26 W/m² | - |
| 1777653256 | 15.56° C | 96% | 1013.2 hPa | 0 mm | - | 58 W/m² | - |
| 1777652032 | 15.56° C | 96% | 1013.1 hPa | 0.76 mm | - | 171 W/m² | - |
| 1777651407 | 15.56° C | 96% | 1013.5 hPa | 1.02 mm | - | 98 W/m² | - |
| 1777650240 | 15.56° C | 96% | 1013.2 hPa | 1.52 mm | - | 142 W/m² | - |
| 1777649604 | 15.56° C | 96% | 1013 hPa | 1.52 mm | - | 230 W/m² | - |
| 1777648407 | 15° C | 96% | 1012.7 hPa | 0.76 mm | - | 125 W/m² | - |
| 1777647830 | 15° C | 96% | 1013 hPa | 0.51 mm | - | 32 W/m² | - |
| 1777647207 | 15° C | 96% | 1014.2 hPa | 0.51 mm | - | 25 W/m² | - |
| 1777646023 | 15° C | 96% | 1014.6 hPa | 0.76 mm | - | 11 W/m² | - |
| 1777645457 | 15° C | 95% | 1014.2 hPa | 1.78 mm | - | 30 W/m² | - |
| 1777644821 | 15° C | 95% | 1014 hPa | 2.29 mm | - | 53 W/m² | - |
| 1777644222 | 15° C | 96% | 1014.4 hPa | 2.29 mm | - | 51 W/m² | - |
| 1777643658 | 15° C | 96% | 1014.6 hPa | 2.54 mm | - | 65 W/m² | - |
| 1777643016 | 15° C | 96% | 1015.4 hPa | 2.79 mm | - | 28 W/m² | - |
| 1777642446 | 15° C | 96% | 1014.8 hPa | 2.54 mm | - | 19 W/m² | - |
| 1777641863 | 15.56° C | 95% | 1015.1 hPa | 1.52 mm | - | 5 W/m² | - |
| 1777640625 | 15.56° C | 95% | 1015.9 hPa | 1.02 mm | - | 0 W/m² | - |
| 1777640054 | 15.56° C | 95% | 1014.5 hPa | 0.25 mm | - | 5 W/m² | - |
| 1777639408 | 15.56° C | 95% | 1014.8 hPa | 0.25 mm | - | 0 W/m² | - |
* Rain latest hour (hover to see other rain measurements)
** Current wind speed in m/s (hover to see current wind gust speed)